Time;durP1;ratioP1;P1;durP2;ratioP2;P2;SDS_P1;SDS_P2;PMS_P1;PMS_P2;Temp;Humidity;BMP_temperature;BMP_pressure;BME280_temperature;BME280_humidity;BME280_pressure;Samples;Min_cycle;Max_cycle;Signal;HPM_P1;HPM_P2
2021/07/10 00:01:07;;;;;;;8.80;6.57;;;15.90;99.90;;;16.82;100.00;98537.97;5029793;28;20477;-80
2021/07/10 00:03:37;;;;;;;14.57;6.90;;;15.80;99.90;;;16.75;100.00;98531.91;5025841;28;21004;-81
2021/07/10 00:06:07;;;;;;;10.37;7.27;;;15.80;99.90;;;16.62;100.00;98539.94;5026664;28;20458;-81
2021/07/10 00:08:37;;;;;;;9.30;7.20;;;15.60;99.90;;;16.56;100.00;98538.94;5027267;28;20477;-81
2021/07/10 00:11:09;;;;;;;11.67;7.10;;;15.50;99.90;;;16.52;100.00;98545.66;5030645;28;21014;-81
2021/07/10 00:13:38;;;;;;;11.00;7.33;;;15.50;99.90;;;16.50;100.00;98540.56;5023777;28;20465;-81
2021/07/10 00:16:07;;;;;;;14.80;6.57;;;15.40;99.90;;;16.51;100.00;98542.22;5026076;28;20515;-81
2021/07/10 00:18:36;;;;;;;13.10;7.17;;;15.50;99.90;;;16.45;100.00;98545.66;5028945;28;20528;-81
2021/07/10 00:21:06;;;;;;;9.43;6.33;;;15.40;99.90;;;16.38;100.00;98541.47;5029530;28;20484;-81
2021/07/10 00:23:36;;;;;;;18.90;7.20;;;15.40;99.90;;;16.37;100.00;98539.84;5030601;28;20551;-80
2021/07/10 00:26:08;;;;;;;11.73;7.60;;;15.30;99.90;;;16.43;100.00;98545.09;5028112;28;20457;-81
2021/07/10 00:28:38;;;;;;;7.77;6.20;;;15.40;99.90;;;16.36;100.00;98543.50;5028539;28;20448;-81
2021/07/10 00:31:07;;;;;;;9.27;7.33;;;15.30;99.90;;;16.41;100.00;98535.75;5029262;28;20917;-81
2021/07/10 00:33:37;;;;;;;9.60;7.20;;;15.40;99.90;;;16.37;100.00;98535.38;5030455;28;20477;-81
2021/07/10 00:36:07;;;;;;;7.80;6.67;;;15.40;99.90;;;16.21;100.00;98533.22;5027295;28;20820;-81
2021/07/10 00:38:38;;;;;;;12.73;7.40;;;15.20;99.90;;;16.14;100.00;98529.00;5031357;28;20474;-81
2021/07/10 00:41:09;;;;;;;10.63;6.90;;;15.10;99.90;;;16.18;100.00;98527.53;5028715;28;20540;-81
2021/07/10 00:43:39;;;;;;;10.93;7.87;;;15.20;99.90;;;16.22;100.00;98526.91;5030307;28;20940;-81
2021/07/10 00:46:09;;;;;;;7.47;6.40;;;15.20;99.90;;;16.14;100.00;98531.66;5031562;28;20802;-81
2021/07/10 00:48:39;;;;;;;10.03;6.57;;;15.10;99.90;;;16.13;100.00;98527.38;5029182;28;20457;-80
2021/07/10 00:51:08;;;;;;;14.40;7.03;;;15.10;99.90;;;16.06;100.00;98527.41;5029572;28;20489;-81
2021/07/10 00:53:39;;;;;;;14.57;7.50;;;15.00;99.90;;;15.89;100.00;98518.38;5030852;28;20711;-80
2021/07/10 00:56:11;;;;;;;11.50;7.03;;;14.80;99.90;;;15.96;100.00;98517.31;5028198;28;20461;-81
2021/07/10 00:58:40;;;;;;;11.03;7.37;;;14.90;99.90;;;15.92;100.00;98510.03;5029960;28;20804;-81
2021/07/10 01:01:10;;;;;;;11.77;6.53;;;14.90;99.90;;;15.79;100.00;98504.81;5022853;28;20540;-81
2021/07/10 01:03:44;;;;;;;12.93;7.27;;;14.70;99.90;;;15.86;100.00;98510.88;5020560;28;20462;-80
2021/07/10 01:06:15;;;;;;;12.87;8.27;;;14.80;99.90;;;15.80;100.00;98509.03;5020394;28;20461;-81
2021/07/10 01:08:45;;;;;;;9.93;6.40;;;14.70;99.90;;;15.73;100.00;98500.34;5025884;28;20513;-80
2021/07/10 01:11:17;;;;;;;12.93;6.77;;;14.70;99.90;;;15.84;100.00;98500.50;5022775;28;20493;-81
2021/07/10 01:13:48;;;;;;;10.90;7.10;;;14.80;99.90;;;15.79;100.00;98499.53;5025753;28;20461;-81
2021/07/10 01:16:18;;;;;;;12.30;6.33;;;14.80;99.90;;;15.79;100.00;98502.16;5025738;28;21011;-81
2021/07/10 01:18:48;;;;;;;13.90;6.93;;;14.70;99.90;;;15.69;100.00;98494.69;5021793;28;20497;-81
2021/07/10 01:21:20;;;;;;;12.60;6.20;;;14.70;99.90;;;15.74;100.00;98501.97;5022105;28;20801;-81
2021/07/10 01:23:51;;;;;;;11.00;6.80;;;14.70;99.90;;;15.75;100.00;98498.31;5022396;28;20729;-81
2021/07/10 01:26:21;;;;;;;10.97;7.00;;;14.70;99.90;;;15.52;100.00;98491.69;5025352;28;20446;-81
2021/07/10 01:28:51;;;;;;;11.13;7.10;;;14.50;99.90;;;15.25;100.00;98492.75;5025343;28;20465;-81
2021/07/10 01:31:20;;;;;;;12.70;6.80;;;14.20;99.90;;;15.32;100.00;98488.28;5024908;28;20490;-81
2021/07/10 01:33:51;;;;;;;6.80;5.93;;;14.30;99.90;;;15.38;100.00;98476.09;5020491;28;20553;-81
2021/07/10 01:36:22;;;;;;;13.90;6.40;;;14.40;99.90;;;15.36;100.00;98486.84;5022643;28;20550;-81
2021/07/10 01:38:51;;;;;;;11.93;7.00;;;14.30;99.90;;;15.18;100.00;98477.97;5024983;28;20458;-81
2021/07/10 01:41:21;;;;;;;13.53;7.33;;;14.20;99.90;;;15.24;100.00;98475.31;5026477;28;20551;-81
2021/07/10 01:43:51;;;;;;;9.63;6.70;;;14.20;99.90;;;15.31;100.00;98470.84;5026461;28;20458;-81
2021/07/10 01:46:22;;;;;;;8.47;6.67;;;14.30;99.90;;;15.33;100.00;98462.75;5021493;28;20705;-80
2021/07/10 01:48:51;;;;;;;10.20;7.40;;;14.30;99.90;;;15.28;100.00;98459.91;5028582;28;20493;-81
2021/07/10 01:51:22;;;;;;;15.80;7.30;;;14.30;99.90;;;15.36;100.00;98460.50;5027435;28;20489;-81
2021/07/10 01:53:53;;;;;;;8.67;6.60;;;14.30;99.90;;;15.39;100.00;98465.34;5027856;28;20458;-81
2021/07/10 01:56:22;;;;;;;12.07;8.00;;;14.40;99.90;;;15.09;100.00;98465.03;5024237;28;20474;-81
2021/07/10 01:58:52;;;;;;;17.80;6.57;;;14.10;99.90;;;15.23;100.00;98463.19;5025402;28;20519;-81
2021/07/10 02:01:23;;;;;;;11.47;7.30;;;14.20;99.90;;;15.28;100.00;98462.53;5026282;28;21177;-81
2021/07/10 02:03:54;;;;;;;17.90;7.50;;;14.20;99.90;;;15.34;100.00;98464.38;5027796;28;20470;-81
2021/07/10 02:06:25;;;;;;;11.30;7.33;;;14.30;99.90;;;15.25;100.00;98458.50;5021006;28;20473;-81
2021/07/10 02:08:55;;;;;;;9.07;6.80;;;14.20;99.90;;;15.27;100.00;98456.44;5027686;28;20932;-81
2021/07/10 02:11:24;;;;;;;11.60;6.73;;;14.20;99.90;;;15.27;100.00;98456.44;5025698;28;20978;-80
2021/07/10 02:13:54;;;;;;;14.70;6.93;;;14.20;99.90;;;15.23;100.00;98457.91;5022685;28;20467;-80
2021/07/10 02:16:23;;;;;;;9.43;7.20;;;14.20;99.90;;;15.20;100.00;98457.50;5020267;28;20829;-80
2021/07/10 02:18:53;;;;;;;11.13;7.13;;;14.10;99.90;;;14.88;100.00;98448.63;5022417;28;20538;-80
2021/07/10 02:21:23;;;;;;;10.50;7.07;;;13.80;99.90;;;14.81;100.00;98458.38;5015493;28;20864;-80
2021/07/10 02:23:55;;;;;;;13.43;7.50;;;13.80;99.90;;;14.81;100.00;98453.09;5016794;28;20976;-80
2021/07/10 02:26:25;;;;;;;11.47;7.10;;;13.70;99.90;;;14.90;100.00;98447.41;5019222;28;20843;-80
2021/07/10 02:28:55;;;;;;;9.47;7.13;;;13.90;99.90;;;14.97;100.00;98450.84;5015332;28;20465;-80
2021/07/10 02:31:24;;;;;;;9.67;7.30;;;14.00;99.90;;;15.03;100.00;98443.94;5023122;28;20462;-81
2021/07/10 02:33:54;;;;;;;11.30;5.70;;;14.00;99.90;;;15.00;100.00;98444.34;5019946;28;20462;-80
2021/07/10 02:36:23;;;;;;;11.60;7.17;;;14.00;99.90;;;14.95;100.00;98436.28;5021973;28;20477;-80
2021/07/10 02:38:55;;;;;;;14.67;6.37;;;13.90;99.90;;;14.94;100.00;98437.28;5024880;28;20457;-81
2021/07/10 02:41:26;;;;;;;11.17;6.60;;;13.90;99.90;;;14.84;100.00;98429.81;5022586;28;20496;-81
2021/07/10 02:43:55;;;;;;;20.37;8.10;;;13.80;99.90;;;14.89;100.00;98429.97;5022883;28;20457;-81
2021/07/10 02:46:25;;;;;;;14.53;7.00;;;13.80;99.90;;;14.93;100.00;98425.13;5018612;28;20483;-81
2021/07/10 02:48:58;;;;;;;9.40;6.57;;;13.90;99.90;;;14.83;100.00;98433.44;5027165;28;20512;-80
2021/07/10 02:51:27;;;;;;;9.33;6.30;;;13.80;99.90;;;14.63;100.00;98430.00;5027209;28;20477;-80
2021/07/10 02:53:59;;;;;;;13.73;6.80;;;13.60;99.90;;;14.63;100.00;98427.38;5027689;28;20457;-80
2021/07/10 02:56:28;;;;;;;7.53;6.73;;;13.50;99.90;;;14.68;100.00;98427.59;5024999;28;20466;-80
2021/07/10 02:58:57;;;;;;;12.10;7.50;;;13.70;99.90;;;14.77;100.00;98421.09;5021597;28;20472;-80
2021/07/10 03:01:27;;;;;;;11.53;6.00;;;13.70;99.90;;;14.63;100.00;98429.19;5022376;28;20465;-81
2021/07/10 03:03:56;;;;;;;8.13;7.00;;;13.60;99.90;;;14.61;100.00;98432.06;5021866;28;20458;-80
2021/07/10 03:06:25;;;;;;;9.07;6.37;;;13.60;99.90;;;14.59;100.00;98434.06;5019686;28;21173;-80
2021/07/10 03:08:55;;;;;;;10.83;7.27;;;13.50;99.90;;;14.60;100.00;98423.34;5017074;28;20466;-81
2021/07/10 03:11:28;;;;;;;7.60;6.60;;;13.50;99.90;;;14.65;100.00;98422.72;5017687;28;20470;-81
2021/07/10 03:13:58;;;;;;;9.67;6.40;;;13.60;99.90;;;14.64;100.00;98415.84;5018465;28;20466;-80
2021/07/10 03:16:27;;;;;;;11.63;6.27;;;13.60;99.90;;;14.61;100.00;98413.63;5017321;28;20966;-81
2021/07/10 03:18:56;;;;;;;10.50;7.40;;;13.50;99.90;;;14.55;100.00;98415.22;5017705;28;20984;-81
2021/07/10 03:21:27;;;;;;;15.80;6.27;;;13.60;99.90;;;14.53;100.00;98417.28;5015505;28;20460;-81
2021/07/10 03:23:58;;;;;;;8.77;5.73;;;13.50;99.90;;;14.44;100.00;98404.50;5018311;28;20833;-81
2021/07/10 03:26:29;;;;;;;12.20;7.10;;;13.40;99.90;;;14.43;100.00;98408.16;5025330;28;20723;-80
2021/07/10 03:29:01;;;;;;;12.30;6.37;;;13.30;99.90;;;14.51;100.00;98406.13;5023291;28;21030;-84
2021/07/10 03:31:31;;;;;;;12.23;7.00;;;13.50;99.90;;;14.53;100.00;98409.38;5023383;28;20469;-81
2021/07/10 03:34:02;;;;;;;10.27;5.93;;;13.50;99.90;;;14.55;100.00;98412.59;5019261;28;20504;-80
2021/07/10 03:36:31;;;;;;;8.20;6.97;;;13.50;99.90;;;14.49;100.00;98408.16;5025861;28;21002;-80
2021/07/10 03:39:00;;;;;;;11.23;6.10;;;13.40;99.90;;;14.37;100.00;98408.97;5023597;28;20532;-80
2021/07/10 03:41:31;;;;;;;8.50;6.87;;;13.30;99.90;;;14.37;100.00;98408.97;5025578;28;20481;-80
2021/07/10 03:44:01;;;;;;;12.97;7.30;;;13.30;99.90;;;14.36;100.00;98404.72;5024786;28;20450;-80
2021/07/10 03:46:31;;;;;;;7.43;6.23;;;13.30;99.90;;;14.22;100.00;98403.06;5026138;28;20544;-80
2021/07/10 03:49:02;;;;;;;11.60;6.93;;;13.20;99.90;;;14.27;100.00;98398.78;5022294;28;20443;-80
2021/07/10 03:51:31;;;;;;;12.43;6.23;;;13.20;99.90;;;14.29;100.00;98402.06;5021945;28;20548;-80
2021/07/10 03:54:01;;;;;;;8.13;5.87;;;13.20;99.90;;;14.43;100.00;98401.06;5026504;28;20478;-80
2021/07/10 03:56:33;;;;;;;8.53;6.40;;;13.40;99.90;;;14.30;100.00;98403.66;5025325;28;20636;-80
2021/07/10 03:59:03;;;;;;;11.63;6.10;;;13.30;99.90;;;13.97;100.00;98402.81;5015729;28;20447;-80
2021/07/10 04:01:35;;;;;;;8.43;6.17;;;13.00;99.90;;;14.02;100.00;98401.19;5019560;28;20811;-81
2021/07/10 04:04:04;;;;;;;8.23;6.80;;;13.00;99.90;;;14.19;100.00;98396.38;5021354;28;20847;-80
2021/07/10 04:06:34;;;;;;;7.80;6.27;;;13.20;99.90;;;14.25;100.00;98392.13;5016234;28;20478;-80
2021/07/10 04:09:03;;;;;;;21.50;7.40;;;13.30;99.90;;;14.14;100.00;98388.28;5012102;28;20910;-80
2021/07/10 04:11:34;;;;;;;10.23;6.50;;;13.10;99.90;;;14.07;100.00;98401.41;5015033;28;20460;-80
2021/07/10 04:14:04;;;;;;;7.40;5.83;;;13.00;99.90;;;14.16;100.00;98394.13;5027185;28;20489;-80
2021/07/10 04:16:35;;;;;;;6.67;5.97;;;13.10;99.90;;;14.24;100.00;98393.94;5026829;28;20481;-80
2021/07/10 04:19:05;;;;;;;7.53;6.30;;;13.20;99.90;;;14.32;100.00;98391.13;5028154;28;20438;-79
2021/07/10 04:21:36;;;;;;;12.37;6.77;;;13.30;99.90;;;14.23;100.00;98389.69;5026711;28;20499;-81
2021/07/10 04:24:06;;;;;;;10.87;6.47;;;13.20;99.90;;;14.19;100.00;98391.13;5026133;28;20465;-82
2021/07/10 04:26:38;;;;;;;13.80;6.53;;;13.10;99.90;;;14.21;100.00;98396.16;5019344;28;20452;-81
2021/07/10 04:29:08;;;;;;;11.33;6.47;;;13.20;99.90;;;14.25;100.00;98394.75;5028616;28;20533;-81
2021/07/10 04:31:39;;;;;;;7.77;6.20;;;13.20;99.90;;;14.27;100.00;98388.28;5029544;28;20470;-81
2021/07/10 04:34:16;;;;;;;14.97;7.60;;;13.20;99.90;;;14.36;100.00;98392.38;5020174;28;20628;-81
2021/07/10 04:36:49;;;;;;;8.10;6.57;;;13.30;99.90;;;14.48;100.00;98389.94;5020968;28;20478;-81
2021/07/10 04:39:22;;;;;;;9.30;6.80;;;13.50;99.90;;;14.56;100.00;98382.66;5029029;28;20553;-81
2021/07/10 04:42:00;;;;;;;9.57;6.80;;;13.50;99.90;;;14.64;100.00;98386.09;5033197;28;21016;-81
2021/07/10 04:44:40;;;;;;;12.80;6.70;;;13.70;99.90;;;14.69;100.00;98391.53;5031209;28;20454;-81
2021/07/10 04:47:12;;;;;;;9.33;6.50;;;13.70;99.90;;;14.79;100.00;98389.28;5029546;28;20893;-81
2021/07/10 04:49:44;;;;;;;13.63;6.30;;;13.80;99.90;;;14.81;100.00;98385.44;5028634;28;20441;-81
2021/07/10 04:52:14;;;;;;;18.17;6.30;;;13.90;99.90;;;14.73;100.00;98382.22;5030714;28;20521;-81
2021/07/10 04:54:45;;;;;;;8.73;6.70;;;13.80;99.90;;;14.85;100.00;98385.84;5026501;28;20559;-81
2021/07/10 04:57:16;;;;;;;11.83;7.17;;;13.90;99.90;;;14.89;100.00;98381.78;5019742;28;20443;-81
2021/07/10 04:59:46;;;;;;;15.27;6.93;;;14.00;99.90;;;14.89;100.00;98387.84;5023369;28;20446;-82
2021/07/10 05:02:16;;;;;;;9.80;6.40;;;14.00;99.90;;;14.88;100.00;98393.34;5020633;28;20450;-81
2021/07/10 05:04:47;;;;;;;8.80;6.60;;;13.90;99.90;;;14.96;100.00;98398.41;5030913;28;20452;-81
2021/07/10 05:07:16;;;;;;;15.10;6.97;;;14.00;99.90;;;15.00;100.00;98389.03;5032390;28;20474;-81
2021/07/10 05:09:47;;;;;;;9.87;6.60;;;14.10;99.90;;;15.05;100.00;98394.50;5032167;28;20442;-81
2021/07/10 05:12:20;;;;;;;12.27;8.33;;;14.10;99.90;;;15.11;100.00;98393.69;5030029;28;20458;-81
2021/07/10 05:14:50;;;;;;;9.43;7.50;;;14.10;99.90;;;15.11;100.00;98391.03;5028857;28;20910;-81
2021/07/10 05:17:20;;;;;;;9.77;7.10;;;14.10;99.90;;;14.99;100.00;98398.75;5032137;28;20488;-81
2021/07/10 05:19:51;;;;;;;9.87;7.40;;;14.00;99.90;;;15.02;100.00;98397.56;5031531;28;20444;-81
2021/07/10 05:22:20;;;;;;;10.27;6.77;;;14.00;99.90;;;15.10;100.00;98389.41;5032095;28;20450;-81
2021/07/10 05:24:50;;;;;;;9.67;7.60;;;14.10;99.90;;;15.19;100.00;98387.38;5031226;28;20508;-82
2021/07/10 05:27:21;;;;;;;8.47;7.40;;;14.20;99.90;;;15.26;100.00;98378.44;5031887;28;20453;-81
2021/07/10 05:29:51;;;;;;;8.10;6.70;;;14.40;99.90;;;15.32;100.00;98385.50;5027252;28;20505;-81
2021/07/10 05:32:21;;;;;;;13.67;6.70;;;14.40;99.90;;;15.39;100.00;98383.66;5031878;28;20537;-81
2021/07/10 05:34:52;;;;;;;9.67;7.00;;;14.50;99.90;;;15.42;100.00;98383.22;5028437;28;20490;-81
2021/07/10 05:37:22;;;;;;;8.40;6.13;;;14.60;99.90;;;15.42;100.00;98388.50;5032145;28;20438;-81
2021/07/10 05:39:52;;;;;;;10.53;6.70;;;14.60;99.90;;;15.52;100.00;98380.16;5031876;28;20443;-82
2021/07/10 05:42:28;;;;;;;7.60;6.03;;;14.70;99.90;;;15.55;100.00;98377.91;5028868;28;20909;-82
2021/07/10 05:45:02;;;;;;;8.10;7.10;;;14.70;99.90;;;15.62;100.00;98377.09;5029043;28;20481;-81
2021/07/10 05:47:32;;;;;;;12.33;6.90;;;14.80;99.90;;;15.60;100.00;98375.47;5031389;28;20980;-81
2021/07/10 05:50:04;;;;;;;8.27;6.57;;;14.70;99.90;;;15.62;100.00;98377.09;5030615;28;20435;-81
2021/07/10 05:52:33;;;;;;;8.50;6.00;;;14.70;99.90;;;15.68;100.00;98379.69;5031256;28;20523;-81
2021/07/10 05:55:03;;;;;;;10.13;6.13;;;14.70;99.90;;;15.73;100.00;98379.03;5031957;28;20498;-81
2021/07/10 05:57:35;;;;;;;11.53;8.53;;;14.90;99.90;;;15.79;100.00;98373.72;5031626;28;20745;-81
2021/07/10 06:00:08;;;;;;;9.70;6.90;;;14.90;99.90;;;15.85;100.00;98377.38;5028804;28;20461;-81
2021/07/10 06:02:39;;;;;;;7.73;6.93;;;15.00;99.90;;;15.84;100.00;98381.03;5031320;28;20453;-81
2021/07/10 06:05:12;;;;;;;11.80;6.87;;;15.00;99.90;;;15.84;100.00;98381.03;5029566;28;20831;-81
2021/07/10 06:07:41;;;;;;;8.47;6.43;;;15.00;99.90;;;15.87;100.00;98381.41;5025704;28;20466;-81
2021/07/10 06:10:13;;;;;;;7.90;6.67;;;15.00;99.90;;;15.91;100.00;98372.06;5031129;28;20524;-81
2021/07/10 06:12:45;;;;;;;9.90;6.60;;;15.00;99.90;;;16.01;100.00;98379.50;5029609;28;20460;-82
2021/07/10 06:15:15;;;;;;;12.97;6.77;;;15.10;99.90;;;16.06;100.00;98374.41;5030929;28;20555;-81
2021/07/10 06:17:46;;;;;;;13.10;6.97;;;15.10;99.90;;;16.09;100.00;98379.25;5031119;28;20952;-81
2021/07/10 06:20:18;;;;;;;12.93;7.40;;;15.10;99.90;;;16.14;100.00;98379.38;5025864;28;20524;-81
2021/07/10 06:22:51;;;;;;;12.53;7.30;;;15.20;99.90;;;16.23;100.00;98374.66;5029568;28;20454;-82
2021/07/10 06:25:30;;;;;;;8.67;7.60;;;15.30;99.90;;;16.32;100.00;98384.75;5031811;28;20963;-81
2021/07/10 06:28:12;;;;;;;8.70;6.40;;;15.40;99.90;;;16.40;100.00;98381.84;5029819;28;20446;-81
2021/07/10 06:30:43;;;;;;;9.47;7.03;;;15.60;99.90;;;16.46;100.00;98382.81;5028492;28;20445;-82
2021/07/10 06:33:19;;;;;;;11.37;6.80;;;15.70;99.90;;;16.51;100.00;98373.22;5030626;28;20818;-81
2021/07/10 06:35:57;;;;;;;16.73;6.60;;;15.80;99.90;;;16.58;100.00;98368.72;5030936;28;20446;-82
2021/07/10 06:38:30;;;;;;;8.03;6.00;;;15.90;99.90;;;16.64;100.00;98372.31;5030690;28;20446;-82
2021/07/10 06:41:06;;;;;;;7.70;6.17;;;15.90;99.90;;;16.69;100.00;98369.03;5027237;28;20580;-82
2021/07/10 06:43:40;;;;;;;9.97;6.53;;;15.90;99.90;;;16.74;100.00;98377.91;5027734;28;20535;-82
2021/07/10 06:46:20;;;;;;;8.30;6.70;;;16.00;99.90;;;16.81;100.00;98378.66;5029674;28;20481;-82
2021/07/10 06:48:56;;;;;;;7.67;6.47;;;16.10;99.90;;;16.88;100.00;98373.31;5030306;28;20446;-81
2021/07/10 06:51:31;;;;;;;7.90;5.83;;;16.20;99.90;;;16.94;100.00;98375.88;5029962;28;20544;-82
2021/07/10 06:54:01;;;;;;;7.90;5.83;;;16.30;99.90;;;16.97;100.00;98372.00;5029238;28;20491;-82
2021/07/10 06:56:35;;;;;;;8.03;6.27;;;16.30;99.90;;;17.03;100.00;98373.75;5030651;28;20446;-82
2021/07/10 06:59:10;;;;;;;8.20;6.13;;;16.40;99.90;;;17.08;100.00;98365.97;5030240;28;20457;-82
2021/07/10 07:01:46;;;;;;;14.50;7.60;;;16.30;99.90;;;17.14;100.00;98369.59;5028850;28;20450;-82
2021/07/10 07:04:19;;;;;;;7.93;6.20;;;16.40;99.90;;;17.20;100.00;98366.84;5025047;28;20887;-81
2021/07/10 07:06:52;;;;;;;9.00;7.50;;;16.50;99.90;;;17.27;100.00;98359.66;5026162;28;20454;-81
2021/07/10 07:09:23;;;;;;;9.60;7.20;;;16.60;99.90;;;17.34;100.00;98363.03;5029925;28;20473;-82
2021/07/10 07:12:03;;;;;;;15.60;7.33;;;16.70;99.90;;;17.40;100.00;98351.56;5027983;28;20814;-82
2021/07/10 07:14:35;;;;;;;7.97;6.67;;;16.70;99.90;;;17.46;100.00;98353.31;5028556;28;20485;-82
2021/07/10 07:17:10;;;;;;;10.40;6.97;;;16.80;99.90;;;17.53;100.00;98350.56;5021652;28;20473;-82
2021/07/10 07:19:44;;;;;;;8.77;6.30;;;16.80;99.90;;;17.58;100.00;98337.53;5030247;28;20569;-82
2021/07/10 07:22:16;;;;;;;8.67;7.10;;;16.90;99.90;;;17.65;100.00;98340.88;5030581;28;20438;-82
2021/07/10 07:24:48;;;;;;;8.30;7.10;;;17.00;99.90;;;17.71;100.00;98339.97;5030274;28;20508;-80
2021/07/10 07:27:20;;;;;;;8.10;6.83;;;17.00;99.90;;;17.76;100.00;98339.31;5029427;28;20482;-81
2021/07/10 07:29:52;;;;;;;11.00;7.20;;;17.00;99.90;;;17.82;100.00;98328.63;5030342;28;20508;-81
2021/07/10 07:32:21;;;;;;;8.40;6.70;;;17.10;99.90;;;17.91;100.00;98334.41;5024849;28;20508;-80
2021/07/10 07:34:51;;;;;;;7.50;6.10;;;17.20;99.90;;;17.99;100.00;98324.28;5030623;28;20501;-81
2021/07/10 07:37:35;;;;;;;9.53;6.90;;;17.30;99.90;;;18.06;100.00;98322.34;5030032;28;20490;-81
2021/07/10 07:40:26;;;;;;;7.43;6.10;;;17.50;99.90;;;18.19;100.00;98323.97;5028230;28;20489;-81
2021/07/10 07:43:01;;;;;;;10.37;5.93;;;17.60;99.90;;;18.28;100.00;98313.88;5022074;28;21013;-80
2021/07/10 07:45:36;;;;;;;6.10;5.43;;;17.80;99.90;;;18.37;100.00;98309.81;5029309;28;20475;-81
2021/07/10 07:48:09;;;;;;;9.00;6.17;;;17.80;99.90;;;18.47;100.00;98312.72;5029367;28;20851;-80
2021/07/10 07:50:51;;;;;;;7.40;5.57;;;17.90;99.90;;;18.57;100.00;98315.59;5026262;28;20476;-81
2021/07/10 07:53:26;;;;;;;5.80;4.70;;;18.00;99.90;;;18.70;100.00;98309.28;5028247;28;20460;-81
2021/07/10 07:55:56;;;;;;;9.90;5.03;;;18.20;99.90;;;18.78;100.00;98319.53;5025500;28;20498;-81
2021/07/10 07:58:26;;;;;;;6.27;4.50;;;18.20;99.90;;;18.88;100.00;98312.56;5029739;28;20462;-81
2021/07/10 08:00:59;;;;;;;7.97;5.13;;;18.40;99.90;;;18.98;100.00;98306.72;5029990;28;20480;-81
2021/07/10 08:03:34;;;;;;;10.07;5.20;;;18.40;99.90;;;19.07;100.00;98300.00;5026783;28;20477;-81
2021/07/10 08:06:10;;;;;;;7.73;5.00;;;18.50;99.90;;;19.15;100.00;98296.97;5026201;28;20565;-81
2021/07/10 08:08:47;;;;;;;7.17;5.00;;;18.50;99.90;;;19.24;100.00;98300.03;5030126;28;20437;-81
2021/07/10 08:11:20;;;;;;;6.40;5.00;;;18.60;99.90;;;19.31;100.00;98301.53;5027789;28;20465;-81
2021/07/10 08:13:51;;;;;;;6.13;4.20;;;18.70;99.90;;;19.35;100.00;98297.34;5031167;28;20453;-81
2021/07/10 08:16:26;;;;;;;5.90;4.00;;;18.80;99.90;;;19.40;100.00;98294.78;5032042;28;20498;-81
2021/07/10 08:18:59;;;;;;;7.33;4.10;;;19.00;99.90;;;19.42;100.00;98295.41;5033461;28;20456;-82
2021/07/10 08:21:33;;;;;;;5.50;4.40;;;18.80;99.90;;;19.48;100.00;98291.78;5030422;28;20560;-82
2021/07/10 08:24:05;;;;;;;12.57;5.10;;;18.80;99.90;;;19.57;100.00;98289.56;5030583;28;20847;-82
2021/07/10 08:26:36;;;;;;;4.67;3.80;;;19.00;99.90;;;19.66;100.00;98280.16;5028067;28;20971;-81
2021/07/10 08:29:13;;;;;;;5.17;4.23;;;19.10;99.90;;;19.74;100.00;98284.28;5029131;28;20458;-81
2021/07/10 08:31:48;;;;;;;6.23;4.00;;;19.10;99.90;;;19.80;100.00;98283.31;5033475;28;20442;-81
2021/07/10 08:34:25;;;;;;;4.83;3.90;;;19.30;99.90;;;19.90;100.00;98288.78;5032890;28;20450;-81
2021/07/10 08:36:56;;;;;;;6.83;4.10;;;19.30;99.90;;;20.00;100.00;98281.00;5032632;28;20481;-81
2021/07/10 08:39:28;;;;;;;4.77;3.83;;;19.40;99.90;;;20.09;100.00;98276.91;5032971;28;20500;-82
2021/07/10 08:42:00;;;;;;;4.73;3.90;;;19.50;99.90;;;20.18;100.00;98274.63;5032853;28;20608;-81
2021/07/10 08:44:35;;;;;;;6.60;3.90;;;19.60;99.90;;;20.25;100.00;98278.75;5033405;28;20466;-81
2021/07/10 08:47:11;;;;;;;5.03;3.80;;;19.70;99.90;;;20.27;100.00;98267.88;5030046;28;20548;-81
2021/07/10 08:49:44;;;;;;;3.83;3.43;;;19.80;99.90;;;20.35;100.00;98273.59;5032944;28;21021;-82
2021/07/10 08:52:21;;;;;;;6.23;3.90;;;19.90;99.90;;;20.44;100.00;98269.47;5031014;28;20446;-81
2021/07/10 08:54:53;;;;;;;8.33;3.73;;;19.90;99.90;;;20.53;100.00;98262.69;5029728;28;20960;-81
2021/07/10 08:57:26;;;;;;;4.10;2.90;;;20.00;99.90;;;20.57;100.00;98263.81;5027213;28;20481;-81
2021/07/10 08:59:58;;;;;;;3.80;3.00;;;20.00;99.90;;;20.59;100.00;98259.06;5033084;28;20501;-81
2021/07/10 09:02:35;;;;;;;4.60;2.97;;;20.10;99.90;;;20.69;100.00;98260.25;5025150;28;20455;-81
2021/07/10 09:05:08;;;;;;;5.10;3.40;;;20.10;99.90;;;20.78;100.00;98258.78;5030783;28;20495;-82
2021/07/10 09:08:16;;;;;;;4.10;3.23;;;20.30;99.90;;;20.77;100.00;98265.13;5026937;28;20501;-81
2021/07/10 09:10:56;;;;;;;5.23;3.23;;;20.20;99.90;;;20.74;95.52;98257.66;5026555;28;20446;-81
2021/07/10 09:13:38;;;;;;;5.50;3.10;;;20.00;99.90;;;20.85;100.00;98264.72;5030475;28;20462;-81
2021/07/10 09:16:11;;;;;;;4.70;3.00;;;20.20;99.90;;;20.94;98.82;98263.22;5031861;28;20494;-81
2021/07/10 09:19:06;;;;;;;4.63;3.43;;;20.40;99.90;;;21.03;97.34;98245.78;5032465;28;20469;-82
2021/07/10 09:22:02;;;;;;;4.23;3.10;;;20.50;99.90;;;21.13;98.08;98237.13;5026725;28;20808;-81
2021/07/10 09:24:45;;;;;;;4.00;3.10;;;20.60;99.90;;;21.13;100.00;98245.91;5032300;28;20469;-81
2021/07/10 09:27:24;;;;;;;6.30;3.00;;;20.50;99.90;;;21.15;97.00;98237.69;5030912;28;20921;-81
2021/07/10 09:29:56;;;;;;;7.07;3.43;;;20.50;99.90;;;21.19;94.06;98234.28;5028025;28;20450;-81
2021/07/10 09:33:08;;;;;;;9.37;4.10;;;20.60;99.90;;;21.31;96.49;98232.25;5031832;28;20856;-81
2021/07/10 09:36:09;;;;;;;5.83;3.47;;;20.60;99.90;;;21.48;97.52;98227.66;5030802;28;20489;-81
2021/07/10 09:38:54;;;;;;;5.70;3.27;;;21.00;99.90;;;21.57;96.58;98230.66;5032248;28;20450;-81
2021/07/10 09:41:40;;;;;;;8.63;3.10;;;21.20;99.90;;;21.67;95.79;98221.94;5024889;28;20550;-81
2021/07/10 09:44:19;;;;;;;4.43;3.50;;;21.20;99.90;;;21.73;95.30;98221.72;5030916;28;20475;-82
2021/07/10 09:47:17;;;;;;;3.77;3.40;;;21.30;99.90;;;21.83;95.62;98226.34;5029515;28;20483;-81
2021/07/10 09:49:58;;;;;;;8.23;4.43;;;21.40;99.90;;;21.93;96.97;98223.78;5026722;28;20466;-82
2021/07/10 09:52:49;;;;;;;3.90;3.27;;;21.60;99.90;;;21.98;95.74;98218.50;5026711;28;20476;-81
2021/07/10 09:58:46;;;;;;;4.80;3.87;;;21.70;99.90;;;22.15;92.52;98211.13;5031523;28;20499;-82
2021/07/10 10:01:35;;;;;;;7.93;4.83;;;21.80;99.90;;;22.22;93.52;98205.59;5029125;28;20510;-81
2021/07/10 10:04:34;;;;;;;7.67;4.30;;;21.80;99.90;;;22.21;92.81;98215.47;5032067;28;20460;-81
2021/07/10 10:07:19;;;;;;;4.00;3.20;;;21.80;99.90;;;22.25;94.63;98213.09;5019588;28;21089;-81
2021/07/10 10:10:22;;;;;;;6.07;3.80;;;21.80;99.90;;;22.30;94.93;98216.56;5030329;28;20860;-81
2021/07/10 10:13:19;;;;;;;9.33;3.40;;;21.80;99.90;;;22.29;91.67;98212.28;5029660;28;20508;-81
2021/07/10 10:16:28;;;;;;;5.10;3.90;;;21.80;99.90;;;22.36;93.11;98212.06;5030928;28;20552;-81
2021/07/10 10:19:07;;;;;;;8.17;4.73;;;21.90;99.90;;;22.39;92.42;98212.34;5025433;28;20472;-81
2021/07/10 10:21:50;;;;;;;9.27;3.37;;;21.90;99.90;;;22.45;94.74;98211.34;5029876;28;20793;-81
2021/07/10 10:24:25;;;;;;;6.97;3.50;;;21.90;99.90;;;22.51;94.06;98210.28;5026412;28;20885;-81
2021/07/10 10:27:12;;;;;;;3.93;3.53;;;22.00;99.90;;;22.53;90.78;98202.81;5030753;28;20462;-81
2021/07/10 10:30:10;;;;;;;4.60;3.30;;;22.10;99.90;;;22.55;87.93;98206.03;5031474;28;20481;-81
2021/07/10 10:32:53;;;;;;;8.93;3.50;;;22.10;99.90;;;22.58;88.70;98194.84;5027669;28;20442;-81
2021/07/10 10:35:40;;;;;;;6.73;3.53;;;22.20;99.90;;;22.63;90.27;98193.28;5029216;28;20450;-81
2021/07/10 10:38:18;;;;;;;8.40;4.00;;;22.10;99.90;;;22.71;88.29;98190.94;5022255;28;20549;-81
2021/07/10 10:41:03;;;;;;;4.30;3.10;;;22.30;99.90;;;22.70;84.18;98197.31;5028236;28;20477;-81